KNGP/NGP METAR and TAF weather

Enter ICAO airport designator
Station Type Date Time Source
KNGP METAR 2019/06/26 15:56 UTC NOAA

KNGP 261556Z 13015G20KT 9SM FEW017 SCT026TCU BKN180 31/27 A3006 RMK AO2 SLP178 CB DSNT N TCU W VCSH W T03110272 $


Station Type Date Time Source
KNGP Decoded METAR 2019/06/26 15:56 UTC NOAA

CORPUS CHRISTI NAVAL AIR STN, TX, United States (KNGP) 27-41N 097-17W
Jun 26, 2019 - 11:56 AM EDT / 2019.06.26 1556 UTC
Wind: from the SE (130 degrees) at 17 MPH (15 KT) gusting to 23 MPH (20 KT):0
Visibility: 9 mile(s):0
Sky conditions: mostly cloudy
Weather: Cumulonimbus clouds, towering cumulus clouds observed
Temperature: 88.0 F (31.1 C)
Heat index: 105.6 F (40.9 C):1
Dew Point: 81.0 F (27.2 C)
Relative Humidity: 79%
Pressure (altimeter): 30.06 in. Hg (1017 hPa)
ob: KNGP 261556Z 13015G20KT 9SM FEW017 SCT026TCU BKN180 31/27 A3006 RMK AO2 SLP178 CB DSNT N TCU W VCSH W T03110272
cycle: 16

Station Type Date Time Source
KNGP TAF 2019/06/26 15:57 UTC NOAA

TAF KNGP 2615/2715 14012G18KT 9999 VCSH FEW015 SCT025 BKN150 QNH3002INS
TEMPO 2615/2617 6000 SHRA BR BKN012 BKN020 OVC150
TEMPO 2617/2619 BKN018 BKN028 BKN150
FM261900 12015G22KT 9999 FEW020 SCT035 SCT150 QNH2997INS
TEMPO 2619/2621 12018G25KT SCT018 BKN030 BKN150
FM270100 13014G20KT 9999 FEW012 SCT020 QNH2999INS
TEMPO 2701/2703 SCT012 OVC018
FM270300 14013G19KT 9999 SCT012 OVC016 QNH3003INS
FM271000 15010KT 9999 VCSH SCT015 SCT025 QNH3005INS
TEMPO 2710/2715 16007KT BKN012 BKN020 T32/2619Z T27/2712Z FN20044

Example: see airport list